createdAt,value
2022-12-08T00:01:25.658Z,0.70
2022-12-08T00:07:01.601Z,0.70
2022-12-08T00:12:04.986Z,0.70
2022-12-08T00:17:09.950Z,0.70
2022-12-08T00:22:15.262Z,0.70
2022-12-08T00:27:18.216Z,0.70
2022-12-08T00:32:20.018Z,0.70
2022-12-08T00:37:21.951Z,0.80
2022-12-08T00:42:23.765Z,0.70
2022-12-08T00:47:25.502Z,0.70
2022-12-08T00:52:27.250Z,0.70
2022-12-08T00:57:29.043Z,0.70
2022-12-08T01:02:32.467Z,0.70
2022-12-08T01:07:34.275Z,0.70
2022-12-08T01:12:36.007Z,0.70
2022-12-08T01:17:38.274Z,0.70
2022-12-08T01:22:40.047Z,0.80
2022-12-08T01:27:41.782Z,0.80
2022-12-08T01:32:43.657Z,0.80
2022-12-08T01:37:45.570Z,0.80
2022-12-08T01:42:47.327Z,0.80
2022-12-08T01:47:51.481Z,0.80
2022-12-08T01:52:58.104Z,0.80
2022-12-08T01:58:05.491Z,0.80
2022-12-08T02:03:14.504Z,0.70
2022-12-08T02:08:16.926Z,0.70
2022-12-08T02:13:20.806Z,0.70
2022-12-08T02:18:35.110Z,0.70
2022-12-08T02:23:42.625Z,0.70
2022-12-08T02:29:18.967Z,0.70
2022-12-08T02:34:33.040Z,0.70
2022-12-08T02:39:52.861Z,0.70
2022-12-08T02:45:00.539Z,0.70
2022-12-08T02:50:02.813Z,0.70
2022-12-08T02:55:29.411Z,0.70
2022-12-08T03:00:40.934Z,0.70
2022-12-08T03:06:10.315Z,0.70
2022-12-08T03:11:20.435Z,0.70
2022-12-08T03:16:27.684Z,0.70
2022-12-08T03:21:31.514Z,0.70
2022-12-08T03:26:44.673Z,0.70
2022-12-08T03:31:53.926Z,0.70
2022-12-08T03:36:55.951Z,0.70
2022-12-08T03:41:57.694Z,0.70
2022-12-08T03:46:59.527Z,0.70
2022-12-08T03:52:01.291Z,0.70
2022-12-08T03:57:03.116Z,0.70
2022-12-08T04:02:04.898Z,0.60
2022-12-08T04:07:06.672Z,0.70
2022-12-08T04:12:11.527Z,0.60
2022-12-08T04:17:13.343Z,0.70
2022-12-08T04:22:15.115Z,0.70
2022-12-08T04:27:16.858Z,0.70
2022-12-08T04:32:18.660Z,0.70
2022-12-08T04:37:20.480Z,0.70
2022-12-08T04:42:22.221Z,0.70
2022-12-08T04:47:24.157Z,0.70
2022-12-08T04:52:26.096Z,0.70
2022-12-08T04:57:27.977Z,0.70
2022-12-08T05:02:29.776Z,0.70
2022-12-08T05:07:31.569Z,0.70
2022-12-08T05:12:33.697Z,0.70
2022-12-08T05:17:35.518Z,0.70
2022-12-08T05:22:37.427Z,0.70
2022-12-08T05:27:39.158Z,0.70
2022-12-08T05:32:40.991Z,0.70
2022-12-08T05:37:42.730Z,0.70
2022-12-08T05:42:44.554Z,0.70
2022-12-08T05:47:46.286Z,0.70
2022-12-08T05:52:48.046Z,0.70
2022-12-08T05:57:49.838Z,0.60
2022-12-08T06:02:51.768Z,0.60
2022-12-08T06:07:53.697Z,0.50
2022-12-08T06:12:55.495Z,0.50
2022-12-08T06:17:57.250Z,0.40
2022-12-08T06:22:59.046Z,0.40
2022-12-08T06:28:00.802Z,0.40
2022-12-08T06:33:02.580Z,0.40
2022-12-08T06:38:04.318Z,0.40
2022-12-08T06:43:06.129Z,0.30
2022-12-08T06:48:07.887Z,0.30
2022-12-08T06:53:13.025Z,0.30
2022-12-08T06:58:15.233Z,0.20
2022-12-08T07:03:17.042Z,0.20
2022-12-08T07:08:19.104Z,0.30
2022-12-08T07:13:20.887Z,0.30
2022-12-08T07:18:23.159Z,0.20
2022-12-08T07:23:24.894Z,0.30
2022-12-08T07:28:26.717Z,0.30
2022-12-08T07:33:28.457Z,0.30
2022-12-08T07:38:30.618Z,0.40
2022-12-08T07:43:32.385Z,0.40
2022-12-08T07:48:34.247Z,0.50
2022-12-08T07:53:36.214Z,0.50
2022-12-08T07:58:38.081Z,0.50
2022-12-08T08:03:40.011Z,0.60
2022-12-08T08:08:41.709Z,0.60
2022-12-08T08:13:43.426Z,0.60
2022-12-08T08:18:48.949Z,0.60
2022-12-08T08:23:50.670Z,0.70
2022-12-08T08:28:52.418Z,0.70
2022-12-08T08:33:54.308Z,0.80
2022-12-08T08:38:56.061Z,0.90
2022-12-08T08:43:57.960Z,1.20
2022-12-08T08:48:59.726Z,1.40
2022-12-08T08:54:01.808Z,1.40
2022-12-08T08:59:03.955Z,1.20
2022-12-08T09:04:05.884Z,0.90
2022-12-08T09:09:07.618Z,0.90
2022-12-08T09:14:17.346Z,0.90
2022-12-08T09:19:19.187Z,2.00
2022-12-08T09:24:20.948Z,3.50
2022-12-08T09:29:22.714Z,3.30
2022-12-08T09:34:24.618Z,3.30
2022-12-08T09:39:26.467Z,3.90
2022-12-08T09:44:57.253Z,3.70
2022-12-08T09:50:07.485Z,2.80
2022-12-08T09:55:19.646Z,2.60
2022-12-08T10:00:21.749Z,2.90
2022-12-08T10:05:25.771Z,2.50
2022-12-08T10:10:46.829Z,2.30
2022-12-08T10:16:17.604Z,1.70
2022-12-08T10:21:28.727Z,1.80
2022-12-08T10:26:32.715Z,1.90
2022-12-08T10:31:34.506Z,1.70
2022-12-08T10:36:58.643Z,1.80
2022-12-08T10:42:02.472Z,1.70
2022-12-08T10:47:13.268Z,1.80
2022-12-08T10:52:24.962Z,1.80
2022-12-08T10:57:26.763Z,1.90
2022-12-08T11:02:28.781Z,1.60
2022-12-08T11:07:30.670Z,1.60
2022-12-08T11:12:32.602Z,1.60
2022-12-08T11:17:39.594Z,1.50
2022-12-08T11:22:43.191Z,1.40
2022-12-08T11:27:48.166Z,1.50
2022-12-08T11:32:54.434Z,1.40
2022-12-08T11:38:19.850Z,1.20
2022-12-08T11:43:25.643Z,1.10
2022-12-08T11:48:32.396Z,1.00
2022-12-08T11:53:40.646Z,1.10
2022-12-08T11:58:47.192Z,1.20
2022-12-08T12:04:10.050Z,1.10
2022-12-08T12:09:33.807Z,1.00
2022-12-08T12:15:07.006Z,1.10
2022-12-08T12:20:23.325Z,1.00
2022-12-08T12:25:27.101Z,0.90
2022-12-08T12:30:48.740Z,0.80
2022-12-08T12:35:50.908Z,0.70
2022-12-08T12:41:00.428Z,0.70
2022-12-08T12:46:24.175Z,0.60
2022-12-08T12:51:45.325Z,0.60
2022-12-08T12:56:49.689Z,0.40
2022-12-08T13:01:55.654Z,0.40
2022-12-08T13:06:57.682Z,0.40
2022-12-08T13:12:08.631Z,0.40
2022-12-08T13:17:14.163Z,0.30
2022-12-08T13:22:53.146Z,0.20
2022-12-08T13:27:55.301Z,0.10
2022-12-08T13:33:18.067Z,0.00
2022-12-08T13:38:26.364Z,0.00
2022-12-08T13:44:50.804Z,-0.10
2022-12-08T14:00:21.367Z,-0.20
2022-12-08T14:05:47.565Z,-0.40
2022-12-08T14:10:53.371Z,-0.40
2022-12-08T14:15:55.344Z,-0.30
2022-12-08T14:21:22.404Z,-0.40
2022-12-08T14:26:24.289Z,-0.40
2022-12-08T14:31:27.976Z,-0.60
2022-12-08T14:36:30.324Z,-0.60
2022-12-08T14:41:32.798Z,-0.60
2022-12-08T14:46:34.571Z,-0.60
2022-12-08T14:51:36.892Z,-0.60
2022-12-08T14:56:42.298Z,-0.60
2022-12-08T15:01:45.391Z,-0.60
2022-12-08T15:06:50.778Z,-0.60
2022-12-08T15:12:15.854Z,-0.60
2022-12-08T15:17:35.368Z,-0.60
2022-12-08T15:22:37.110Z,-0.60
2022-12-08T15:27:49.801Z,-0.70
2022-12-08T15:32:54.237Z,-0.60
2022-12-08T15:37:56.277Z,-0.60
2022-12-08T15:42:58.167Z,-0.50
2022-12-08T15:48:00.695Z,-0.50
2022-12-08T15:53:02.775Z,-0.50
2022-12-08T15:58:51.841Z,-0.50
2022-12-08T16:04:09.393Z,-0.50
2022-12-08T16:09:00.475Z,-0.60
2022-12-08T16:14:47.375Z,-0.50
2022-12-08T16:19:33.554Z,-0.60
2022-12-08T16:24:35.314Z,-0.60
2022-12-08T16:29:37.114Z,-0.60
2022-12-08T16:34:39.050Z,-0.60
2022-12-08T16:39:45.540Z,-0.50
2022-12-08T16:44:47.662Z,-0.60
2022-12-08T16:49:49.448Z,-0.50
2022-12-08T16:54:51.282Z,-0.50
2022-12-08T16:59:53.005Z,-0.50
2022-12-08T17:04:54.855Z,-0.40
2022-12-08T17:09:56.963Z,-0.40
2022-12-08T17:14:58.724Z,-0.30
2022-12-08T17:20:00.452Z,-0.20
2022-12-08T17:25:02.869Z,-0.20
2022-12-08T17:30:06.428Z,-0.10
2022-12-08T17:35:09.052Z,-0.10
2022-12-08T17:40:11.634Z,-0.10
2022-12-08T17:45:13.441Z,-0.10
2022-12-08T17:50:15.208Z,0.00
2022-12-08T17:55:17.495Z,0.00
2022-12-08T18:00:19.458Z,0.00
2022-12-08T18:05:21.230Z,0.10
2022-12-08T18:10:22.990Z,0.00
2022-12-08T18:15:26.065Z,0.10
2022-12-08T18:20:27.881Z,0.10
2022-12-08T18:25:29.594Z,0.10
2022-12-08T18:30:31.501Z,0.10
2022-12-08T18:35:33.674Z,0.10
2022-12-08T18:40:35.430Z,0.10
2022-12-08T18:45:38.871Z,0.10
2022-12-08T18:50:44.719Z,0.10
2022-12-08T18:55:47.232Z,0.00
2022-12-08T19:00:48.963Z,0.00
2022-12-08T19:05:50.734Z,0.10
2022-12-08T19:10:52.462Z,0.00
2022-12-08T19:15:54.647Z,0.00
2022-12-08T19:20:56.945Z,-0.10
2022-12-08T19:25:58.851Z,-0.10
2022-12-08T19:31:04.648Z,-0.10
2022-12-08T19:36:13.957Z,-0.10
2022-12-08T19:41:34.494Z,-0.10
2022-12-08T19:46:40.358Z,-0.10
2022-12-08T19:51:42.399Z,-0.10
2022-12-08T19:56:44.166Z,-0.20
2022-12-08T20:01:48.286Z,-0.20
2022-12-08T20:06:51.356Z,-0.20
2022-12-08T20:11:54.748Z,-0.20
2022-12-08T20:16:56.622Z,-0.30
2022-12-08T20:21:58.356Z,-0.30
2022-12-08T20:27:00.131Z,-0.40
2022-12-08T20:32:01.991Z,-0.40
2022-12-08T20:37:03.893Z,-0.50
2022-12-08T20:42:05.747Z,-0.50
2022-12-08T20:47:07.704Z,-0.50
2022-12-08T20:52:09.743Z,-0.50
2022-12-08T20:57:11.650Z,-0.60
2022-12-08T21:02:13.692Z,-0.60
2022-12-08T21:07:15.800Z,-0.50
2022-12-08T21:12:17.593Z,-0.60
2022-12-08T21:17:19.653Z,-0.60
2022-12-08T21:22:21.732Z,-0.60
2022-12-08T21:27:23.676Z,-0.60
2022-12-08T21:32:30.057Z,-0.70
2022-12-08T21:37:33.172Z,-0.70
2022-12-08T21:42:43.959Z,-0.70
2022-12-08T21:47:47.696Z,-0.70
2022-12-08T21:52:50.368Z,-0.70
2022-12-08T21:57:52.201Z,-0.70
2022-12-08T22:02:54.277Z,-0.70
2022-12-08T22:07:56.402Z,-0.60
2022-12-08T22:12:58.269Z,-0.70
2022-12-08T22:18:00.289Z,-0.70
2022-12-08T22:23:02.694Z,-0.70
2022-12-08T22:28:05.077Z,-0.80
2022-12-08T22:33:06.878Z,-0.70
2022-12-08T22:38:08.938Z,-0.80
2022-12-08T22:43:10.676Z,-0.70
2022-12-08T22:48:12.550Z,-0.80
2022-12-08T22:53:14.468Z,-0.80
2022-12-08T22:58:16.370Z,-0.80
2022-12-08T23:03:18.332Z,-0.80
2022-12-08T23:08:20.572Z,-0.80
2022-12-08T23:13:22.883Z,-0.80
2022-12-08T23:18:24.847Z,-0.80
2022-12-08T23:23:26.797Z,-0.80
2022-12-08T23:28:28.844Z,-0.90
2022-12-08T23:33:31.675Z,-1.00
2022-12-08T23:38:33.999Z,-0.90
2022-12-08T23:43:36.134Z,-0.90
2022-12-08T23:48:38.079Z,-0.90
2022-12-08T23:53:40.604Z,-0.90
2022-12-08T23:58:43.619Z,-0.90
